sensor_id;sensor_type;location;lat;lon;timestamp;temperature;humidity
6956;DHT22;50345;51.136;16.886;2023-06-22T04:55:56;22.50;99.90
6956;DHT22;50345;51.136;16.886;2023-06-22T04:58:21;22.40;99.90
6956;DHT22;50345;51.136;16.886;2023-06-22T05:00:47;22.30;99.90
6956;DHT22;50345;51.136;16.886;2023-06-22T05:03:13;22.30;99.90
6956;DHT22;50345;51.136;16.886;2023-06-22T05:05:38;22.30;99.90
6956;DHT22;50345;51.136;16.886;2023-06-22T05:08:04;22.40;99.90
6956;DHT22;50345;51.136;16.886;2023-06-22T05:12:58;22.60;99.90
6956;DHT22;50345;51.136;16.886;2023-06-22T05:15:24;22.70;99.90
6956;DHT22;50345;51.136;16.886;2023-06-22T05:17:53;22.80;99.90
6956;DHT22;50345;51.136;16.886;2023-06-22T05:42:17;23.40;99.90
6956;DHT22;50345;51.136;16.886;2023-06-22T05:54:30;23.60;99.90
6956;DHT22;50345;51.136;16.886;2023-06-22T05:56:55;23.60;99.90
6956;DHT22;50345;51.136;16.886;2023-06-22T05:59:21;23.60;99.90
6956;DHT22;50345;51.136;16.886;2023-06-22T06:01:47;23.70;99.90
6956;DHT22;50345;51.136;16.886;2023-06-22T06:04:17;23.70;99.90
6956;DHT22;50345;51.136;16.886;2023-06-22T06:28:42;24.30;99.90
6956;DHT22;50345;51.136;16.886;2023-06-22T06:31:07;24.30;99.90
6956;DHT22;50345;51.136;16.886;2023-06-22T06:33:34;24.40;99.90
6956;DHT22;50345;51.136;16.886;2023-06-22T06:38:27;24.50;99.90
6956;DHT22;50345;51.136;16.886;2023-06-22T06:40:53;24.50;99.90
6956;DHT22;50345;51.136;16.886;2023-06-22T06:45:45;24.70;99.90
6956;DHT22;50345;51.136;16.886;2023-06-22T06:48:10;24.90;99.90
6956;DHT22;50345;51.136;16.886;2023-06-22T06:50:36;25.20;99.90
6956;DHT22;50345;51.136;16.886;2023-06-22T06:53:01;25.40;99.90
6956;DHT22;50345;51.136;16.886;2023-06-22T06:55:27;25.60;99.90
6956;DHT22;50345;51.136;16.886;2023-06-22T06:57:54;25.70;99.90
6956;DHT22;50345;51.136;16.886;2023-06-22T07:00:19;25.80;99.90
6956;DHT22;50345;51.136;16.886;2023-06-22T07:12:33;26.40;99.90
6956;DHT22;50345;51.136;16.886;2023-06-22T07:15:07;26.50;99.90
6956;DHT22;50345;51.136;16.886;2023-06-22T07:17:39;26.70;99.90
6956;DHT22;50345;51.136;16.886;2023-06-22T07:20:07;26.80;99.90
6956;DHT22;50345;51.136;16.886;2023-06-22T07:22:38;27.00;99.90
6956;DHT22;50345;51.136;16.886;2023-06-22T07:25:04;27.10;99.90
6956;DHT22;50345;51.136;16.886;2023-06-22T07:27:37;27.30;99.90
6956;DHT22;50345;51.136;16.886;2023-06-22T08:26:16;27.80;99.90
6956;DHT22;50345;51.136;16.886;2023-06-22T08:28:41;27.90;99.90
6956;DHT22;50345;51.136;16.886;2023-06-22T09:05:13;31.50;91.00
6956;DHT22;50345;51.136;16.886;2023-06-22T09:07:39;31.50;91.30
6956;DHT22;50345;51.136;16.886;2023-06-22T09:12:31;32.80;77.40
6956;DHT22;50345;51.136;16.886;2023-06-22T09:15:01;32.90;76.70
6956;DHT22;50345;51.136;16.886;2023-06-22T09:17:28;33.10;73.10
6956;DHT22;50345;51.136;16.886;2023-06-22T09:19:53;33.20;72.00
6956;DHT22;50345;51.136;16.886;2023-06-22T09:22:19;33.50;70.10
6956;DHT22;50345;51.136;16.886;2023-06-22T09:27:11;34.10;63.70
6956;DHT22;50345;51.136;16.886;2023-06-22T09:29:36;34.30;62.00
6956;DHT22;50345;51.136;16.886;2023-06-22T09:32:02;34.50;60.50
6956;DHT22;50345;51.136;16.886;2023-06-22T09:49:04;38.20;47.50
6956;DHT22;50345;51.136;16.886;2023-06-22T09:53:56;39.10;44.40
6956;DHT22;50345;51.136;16.886;2023-06-22T09:56:23;39.70;43.20
6956;DHT22;50345;51.136;16.886;2023-06-22T09:58:49;40.10;42.10
6956;DHT22;50345;51.136;16.886;2023-06-22T10:01:17;40.30;40.80
6956;DHT22;50345;51.136;16.886;2023-06-22T10:06:09;40.20;41.00
6956;DHT22;50345;51.136;16.886;2023-06-22T10:08:35;39.20;42.30
6956;DHT22;50345;51.136;16.886;2023-06-22T10:11:03;37.90;44.10
6956;DHT22;50345;51.136;16.886;2023-06-22T10:15:54;35.40;47.80
6956;DHT22;50345;51.136;16.886;2023-06-22T10:18:20;34.70;49.60
6956;DHT22;50345;51.136;16.886;2023-06-22T10:20:48;34.70;50.20
6956;DHT22;50345;51.136;16.886;2023-06-22T10:23:16;35.00;49.60
6956;DHT22;50345;51.136;16.886;2023-06-22T10:25:42;35.60;49.30
6956;DHT22;50345;51.136;16.886;2023-06-22T10:28:08;36.20;47.70
6956;DHT22;50345;51.136;16.886;2023-06-22T10:30:33;36.70;45.30
6956;DHT22;50345;51.136;16.886;2023-06-22T10:32:59;37.00;44.00
6956;DHT22;50345;51.136;16.886;2023-06-22T10:35:24;37.40;44.90
6956;DHT22;50345;51.136;16.886;2023-06-22T10:47:37;38.80;42.30
6956;DHT22;50345;51.136;16.886;2023-06-22T10:50:03;38.80;43.40
6956;DHT22;50345;51.136;16.886;2023-06-22T10:52:29;38.70;43.10
6956;DHT22;50345;51.136;16.886;2023-06-22T10:54:56;38.10;43.90
6956;DHT22;50345;51.136;16.886;2023-06-22T10:57:22;37.50;44.80
6956;DHT22;50345;51.136;16.886;2023-06-22T10:59:47;37.00;45.20
6956;DHT22;50345;51.136;16.886;2023-06-22T11:02:13;36.60;45.40
6956;DHT22;50345;51.136;16.886;2023-06-22T11:04:38;36.70;46.10
6956;DHT22;50345;51.136;16.886;2023-06-22T11:07:04;37.10;44.20
6956;DHT22;50345;51.136;16.886;2023-06-22T11:09:30;37.60;42.30
6956;DHT22;50345;51.136;16.886;2023-06-22T11:14:24;39.00;39.70
6956;DHT22;50345;51.136;16.886;2023-06-22T11:16:50;39.30;39.60
6956;DHT22;50345;51.136;16.886;2023-06-22T11:21:41;41.20;37.80
6956;DHT22;50345;51.136;16.886;2023-06-22T11:26:33;43.20;35.60
6956;DHT22;50345;51.136;16.886;2023-06-22T11:28:59;43.60;35.60
6956;DHT22;50345;51.136;16.886;2023-06-22T11:31:25;43.70;34.90
6956;DHT22;50345;51.136;16.886;2023-06-22T11:33:50;43.80;34.60
6956;DHT22;50345;51.136;16.886;2023-06-22T11:36:16;43.80;33.90
6956;DHT22;50345;51.136;16.886;2023-06-22T11:38:42;43.20;34.40
6956;DHT22;50345;51.136;16.886;2023-06-22T11:41:09;42.20;34.80
6956;DHT22;50345;51.136;16.886;2023-06-22T11:43:35;41.40;36.00
6956;DHT22;50345;51.136;16.886;2023-06-22T11:46:02;41.30;36.20
6956;DHT22;50345;51.136;16.886;2023-06-22T11:48:28;41.20;36.60
6956;DHT22;50345;51.136;16.886;2023-06-22T11:50:54;40.60;37.10
6956;DHT22;50345;51.136;16.886;2023-06-22T11:58:14;38.30;38.70
6956;DHT22;50345;51.136;16.886;2023-06-22T12:00:40;38.10;40.00
6956;DHT22;50345;51.136;16.886;2023-06-22T12:03:07;38.60;39.60
6956;DHT22;50345;51.136;16.886;2023-06-22T12:05:32;39.50;38.50
6956;DHT22;50345;51.136;16.886;2023-06-22T12:07:58;40.40;37.20
6956;DHT22;50345;51.136;16.886;2023-06-22T12:10:25;41.10;36.40
6956;DHT22;50345;51.136;16.886;2023-06-22T12:15:17;42.30;33.80
6956;DHT22;50345;51.136;16.886;2023-06-22T12:17:43;42.80;33.30
6956;DHT22;50345;51.136;16.886;2023-06-22T12:20:08;42.80;32.40
6956;DHT22;50345;51.136;16.886;2023-06-22T12:22:34;42.10;32.40
6956;DHT22;50345;51.136;16.886;2023-06-22T12:25:01;41.20;33.40
6956;DHT22;50345;51.136;16.886;2023-06-22T12:27:27;40.80;33.80
6956;DHT22;50345;51.136;16.886;2023-06-22T12:29:52;41.20;33.40
6956;DHT22;50345;51.136;16.886;2023-06-22T12:32:18;41.70;33.60
6956;DHT22;50345;51.136;16.886;2023-06-22T12:34:44;42.40;32.50
6956;DHT22;50345;51.136;16.886;2023-06-22T12:37:10;43.00;32.00
6956;DHT22;50345;51.136;16.886;2023-06-22T12:42:02;44.40;29.80
6956;DHT22;50345;51.136;16.886;2023-06-22T12:46:53;45.60;28.30
6956;DHT22;50345;51.136;16.886;2023-06-22T12:49:19;45.60;28.80
6956;DHT22;50345;51.136;16.886;2023-06-22T12:51:45;45.90;28.80
6956;DHT22;50345;51.136;16.886;2023-06-22T12:56:37;46.60;27.30
6956;DHT22;50345;51.136;16.886;2023-06-22T12:59:04;46.70;27.20
6956;DHT22;50345;51.136;16.886;2023-06-22T13:01:30;46.70;27.00
6956;DHT22;50345;51.136;16.886;2023-06-22T13:03:57;47.00;27.10
6956;DHT22;50345;51.136;16.886;2023-06-22T13:06:23;47.20;27.10
6956;DHT22;50345;51.136;16.886;2023-06-22T13:08:48;47.40;26.90
6956;DHT22;50345;51.136;16.886;2023-06-22T13:11:14;47.50;26.50
6956;DHT22;50345;51.136;16.886;2023-06-22T13:13:40;47.70;26.50
6956;DHT22;50345;51.136;16.886;2023-06-22T13:16:07;47.70;25.80
6956;DHT22;50345;51.136;16.886;2023-06-22T13:18:33;47.70;26.20
6956;DHT22;50345;51.136;16.886;2023-06-22T13:21:04;48.00;26.30
6956;DHT22;50345;51.136;16.886;2023-06-22T13:23:29;48.40;26.20
6956;DHT22;50345;51.136;16.886;2023-06-22T13:28:21;49.00;25.10
6956;DHT22;50345;51.136;16.886;2023-06-22T13:30:47;49.10;25.50
6956;DHT22;50345;51.136;16.886;2023-06-22T13:33:13;49.50;25.50
6956;DHT22;50345;51.136;16.886;2023-06-22T13:35:39;49.70;25.20
6956;DHT22;50345;51.136;16.886;2023-06-22T13:38:05;49.30;25.30
6956;DHT22;50345;51.136;16.886;2023-06-22T13:40:31;48.00;25.70
6956;DHT22;50345;51.136;16.886;2023-06-22T13:42:56;46.50;26.50
6956;DHT22;50345;51.136;16.886;2023-06-22T13:47:48;43.50;27.80
6956;DHT22;50345;51.136;16.886;2023-06-22T13:50:14;42.70;29.70
6956;DHT22;50345;51.136;16.886;2023-06-22T13:52:39;43.10;30.10
6956;DHT22;50345;51.136;16.886;2023-06-22T13:55:05;43.50;30.00
6956;DHT22;50345;51.136;16.886;2023-06-22T13:57:32;43.70;29.80
6956;DHT22;50345;51.136;16.886;2023-06-22T13:59:59;43.60;30.00
6956;DHT22;50345;51.136;16.886;2023-06-22T14:02:26;43.10;30.00
6956;DHT22;50345;51.136;16.886;2023-06-22T14:04:51;42.80;30.70
6956;DHT22;50345;51.136;16.886;2023-06-22T14:07:17;43.70;30.00
6956;DHT22;50345;51.136;16.886;2023-06-22T14:09:44;45.20;29.30
6956;DHT22;50345;51.136;16.886;2023-06-22T14:12:10;46.70;28.00
6956;DHT22;50345;51.136;16.886;2023-06-22T14:14:36;48.00;26.90
6956;DHT22;50345;51.136;16.886;2023-06-22T14:19:28;50.10;24.70
6956;DHT22;50345;51.136;16.886;2023-06-22T14:21:53;50.30;24.60
6956;DHT22;50345;51.136;16.886;2023-06-22T14:24:19;50.80;24.10
6956;DHT22;50345;51.136;16.886;2023-06-22T14:26:44;50.60;24.00
6956;DHT22;50345;51.136;16.886;2023-06-22T14:29:10;50.60;24.10
6956;DHT22;50345;51.136;16.886;2023-06-22T14:31:35;50.70;23.70
6956;DHT22;50345;51.136;16.886;2023-06-22T14:34:01;51.00;23.70
6956;DHT22;50345;51.136;16.886;2023-06-22T14:36:28;50.80;23.40
6956;DHT22;50345;51.136;16.886;2023-06-22T14:38:54;49.50;24.10
6956;DHT22;50345;51.136;16.886;2023-06-22T14:41:20;48.50;25.00
6956;DHT22;50345;51.136;16.886;2023-06-22T14:43:46;47.40;26.00
6956;DHT22;50345;51.136;16.886;2023-06-22T14:46:13;46.30;26.90
6956;DHT22;50345;51.136;16.886;2023-06-22T14:48:39;45.90;27.20
6956;DHT22;50345;51.136;16.886;2023-06-22T14:55:56;42.30;29.50
6956;DHT22;50345;51.136;16.886;2023-06-22T14:58:22;41.30;31.50
6956;DHT22;50345;51.136;16.886;2023-06-22T15:00:47;40.50;32.60
6956;DHT22;50345;51.136;16.886;2023-06-22T15:03:13;40.90;32.10
6956;DHT22;50345;51.136;16.886;2023-06-22T15:05:43;42.20;30.70
6956;DHT22;50345;51.136;16.886;2023-06-22T15:08:09;43.80;37.10
6956;DHT22;50345;51.136;16.886;2023-06-22T15:15:26;46.80;26.40
6956;DHT22;50345;51.136;16.886;2023-06-22T15:22:44;47.90;25.40
6956;DHT22;50345;51.136;16.886;2023-06-22T15:25:09;48.00;26.00
6956;DHT22;50345;51.136;16.886;2023-06-22T15:27:35;48.20;25.90
6956;DHT22;50345;51.136;16.886;2023-06-22T15:30:02;48.30;25.70
6956;DHT22;50345;51.136;16.886;2023-06-22T15:32:29;48.30;25.40
6956;DHT22;50345;51.136;16.886;2023-06-22T15:34:54;48.30;25.20
6956;DHT22;50345;51.136;16.886;2023-06-22T15:37:20;48.20;25.20
6956;DHT22;50345;51.136;16.886;2023-06-22T15:39:46;48.20;25.00
6956;DHT22;50345;51.136;16.886;2023-06-22T15:42:12;48.20;24.90
6956;DHT22;50345;51.136;16.886;2023-06-22T15:44:38;48.30;24.90
6956;DHT22;50345;51.136;16.886;2023-06-22T15:47:04;48.40;24.50
6956;DHT22;50345;51.136;16.886;2023-06-22T15:49:29;48.20;24.40
6956;DHT22;50345;51.136;16.886;2023-06-22T15:51:55;48.20;24.60
6956;DHT22;50345;51.136;16.886;2023-06-22T15:54:20;48.20;24.70
6956;DHT22;50345;51.136;16.886;2023-06-22T15:56:46;48.20;24.70
6956;DHT22;50345;51.136;16.886;2023-06-22T15:59:11;48.10;24.80
6956;DHT22;50345;51.136;16.886;2023-06-22T16:01:37;47.90;25.50
6956;DHT22;50345;51.136;16.886;2023-06-22T16:04:03;47.60;25.10
6956;DHT22;50345;51.136;16.886;2023-06-22T16:06:29;47.30;25.30
6956;DHT22;50345;51.136;16.886;2023-06-22T16:08:54;46.70;25.60
6956;DHT22;50345;51.136;16.886;2023-06-22T16:16:12;45.50;26.50
6956;DHT22;50345;51.136;16.886;2023-06-22T16:18:38;45.20;26.90
6956;DHT22;50345;51.136;16.886;2023-06-22T16:23:31;42.00;28.40
6956;DHT22;50345;51.136;16.886;2023-06-22T16:38:07;37.00;35.40
6956;DHT22;50345;51.136;16.886;2023-06-22T16:40:32;36.90;35.80
6956;DHT22;50345;51.136;16.886;2023-06-22T16:45:24;36.20;36.30
6956;DHT22;50345;51.136;16.886;2023-06-22T16:47:51;35.90;37.40
6956;DHT22;50345;51.136;16.886;2023-06-22T16:50:17;35.60;37.60
6956;DHT22;50345;51.136;16.886;2023-06-22T17:17:39;33.40;41.60
6956;DHT22;50345;51.136;16.886;2023-06-22T17:20:06;33.20;42.30
6956;DHT22;50345;51.136;16.886;2023-06-22T17:22:32;33.10;42.50
6956;DHT22;50345;51.136;16.886;2023-06-22T17:30:06;33.10;49.10
6956;DHT22;50345;51.136;16.886;2023-06-22T17:54:45;31.10;45.70
6956;DHT22;50345;51.136;16.886;2023-06-22T17:57:15;31.10;47.30
6956;DHT22;50345;51.136;16.886;2023-06-22T17:59:41;30.90;47.90
6956;DHT22;50345;51.136;16.886;2023-06-22T19:16:35;27.40;50.30
6956;DHT22;50345;51.136;16.886;2023-06-22T19:19:12;27.20;51.00
